Terminal Aerodrome Forecast
Issued by NWS

Home | Current Version | Previous Version | Text Only | Print | Product List | Glossary Off
Versions: 1 2 3 4 5 6 7 8 9 10 11 12 13 14 15 16 17 18 19 20 21 22 23 24 25 26 27 28 29 30 31

119
FTUS43 KLOT 090315 AAA
TAFORD
TAF AMD
KORD 090315Z 0903/1006 23012KT 6SM -SN OVC040
      TEMPO 0903/0905 2SM -SN BKN025
     FM090600 23008KT 3SM -SN OVC025
      TEMPO 0907/0910 1SM -SN SCT009 OVC015
     FM091000 29011KT 4SM -SHSN OVC020
     FM091300 32015G23KT P6SM -SHSN BKN025
     FM091500 33017G27KT P6SM BKN025 OVC040
      TEMPO 0915/0918 3SM -SHSN OVC020
     FM100000 31012KT P6SM BKN250=

USA.gov is the U.S. government's official web portal to all federal, state and local government web resources and services.